createdAt,value
2022-11-13T00:01:19.953Z,109.87
2022-11-13T00:03:48.516Z,134.23
2022-11-13T00:06:18.090Z,31.50
2022-11-13T00:08:48.062Z,80.20
2022-11-13T00:11:19.419Z,29.60
2022-11-13T00:13:48.215Z,137.90
2022-11-13T00:16:17.752Z,85.53
2022-11-13T00:18:46.255Z,127.70
2022-11-13T00:21:16.256Z,27.07
2022-11-13T00:23:45.081Z,50.00
2022-11-13T00:26:17.362Z,88.03
2022-11-13T00:28:46.268Z,47.03
2022-11-13T00:31:16.216Z,78.00
2022-11-13T00:36:32.249Z,54.93
2022-11-13T00:39:00.282Z,67.43
2022-11-13T00:41:29.706Z,18.97
2022-11-13T00:43:57.719Z,34.37
2022-11-13T00:46:25.757Z,40.40
2022-11-13T00:48:53.816Z,19.53
2022-11-13T00:51:22.793Z,44.73
2022-11-13T00:53:50.853Z,55.50
2022-11-13T00:56:19.115Z,46.60
2022-11-13T00:58:48.608Z,30.33
2022-11-13T01:01:19.257Z,32.37
2022-11-13T01:03:48.504Z,13.13
2022-11-13T01:06:20.703Z,68.37
2022-11-13T01:08:48.936Z,65.40
2022-11-13T01:11:18.991Z,34.33
2022-11-13T01:13:50.264Z,63.63
2022-11-13T01:16:20.602Z,39.47
2022-11-13T01:18:49.388Z,35.33
2022-11-13T01:21:20.381Z,67.37
2022-11-13T01:23:49.030Z,39.17
2022-11-13T01:26:21.037Z,79.87
2022-11-13T01:28:50.763Z,71.13
2022-11-13T01:31:21.062Z,27.43
2022-11-13T01:33:49.606Z,46.53
2022-11-13T01:36:19.185Z,88.10
2022-11-13T01:38:47.657Z,86.70
2022-11-13T01:41:23.344Z,33.53
2022-11-13T01:43:55.255Z,60.20
2022-11-13T01:46:27.212Z,77.97
2022-11-13T01:49:01.527Z,98.13
2022-11-13T01:51:32.083Z,50.67
2022-11-13T01:54:00.758Z,67.10
2022-11-13T01:56:28.809Z,117.17
2022-11-13T01:59:03.262Z,107.17
2022-11-13T02:01:31.399Z,155.60
2022-11-13T02:03:59.931Z,209.70
2022-11-13T02:06:30.208Z,111.03
2022-11-13T02:08:58.273Z,147.33
2022-11-13T02:11:27.045Z,105.73
2022-11-13T02:13:55.912Z,112.70
2022-11-13T02:16:25.606Z,110.10
2022-11-13T02:18:54.070Z,230.33
2022-11-13T02:21:33.858Z,59.07
2022-11-13T02:24:10.404Z,46.40
2022-11-13T02:26:38.907Z,45.27
2022-11-13T02:29:07.453Z,77.13
2022-11-13T02:31:35.494Z,70.53
2022-11-13T02:34:03.917Z,64.53
2022-11-13T02:36:32.300Z,152.60
2022-11-13T02:39:02.912Z,116.23
2022-11-13T02:41:32.458Z,163.33
2022-11-13T02:44:00.523Z,138.87
2022-11-13T02:46:28.867Z,130.13
2022-11-13T02:48:57.349Z,58.20
2022-11-13T02:51:25.758Z,56.23
2022-11-13T02:53:53.993Z,87.57
2022-11-13T02:56:22.232Z,75.83
2022-11-13T02:58:51.946Z,37.47
2022-11-13T03:01:20.007Z,36.63
2022-11-13T03:03:57.549Z,88.30
2022-11-13T03:06:26.374Z,113.73
2022-11-13T03:08:54.494Z,116.10
2022-11-13T03:11:22.642Z,81.97
2022-11-13T03:13:52.015Z,117.23
2022-11-13T03:16:20.855Z,77.80
2022-11-13T03:18:48.959Z,75.20
2022-11-13T03:21:18.139Z,102.37
2022-11-13T03:23:46.307Z,85.90
2022-11-13T03:26:16.041Z,59.80
2022-11-13T03:28:44.440Z,64.13
2022-11-13T03:31:14.238Z,31.73
2022-11-13T03:33:42.472Z,48.30
2022-11-13T03:36:11.821Z,103.70
2022-11-13T03:38:40.196Z,39.37
2022-11-13T03:41:08.425Z,59.40
2022-11-13T03:43:36.478Z,132.20
2022-11-13T03:46:04.465Z,122.17
2022-11-13T03:48:34.606Z,75.87
2022-11-13T03:51:02.885Z,126.30
2022-11-13T03:53:31.189Z,59.97
2022-11-13T03:55:59.720Z,87.53
2022-11-13T03:58:28.150Z,90.60
2022-11-13T04:00:57.108Z,40.30
2022-11-13T04:03:25.180Z,121.70
2022-11-13T04:05:54.763Z,165.80
2022-11-13T04:08:22.848Z,149.33
2022-11-13T04:10:50.893Z,145.60
2022-11-13T04:13:19.049Z,196.70
2022-11-13T04:15:47.853Z,170.93
2022-11-13T04:18:15.931Z,37.23
2022-11-13T04:20:44.137Z,57.47
2022-11-13T04:23:16.084Z,69.20
2022-11-13T04:25:44.072Z,121.50
2022-11-13T04:28:12.385Z,129.43
2022-11-13T04:30:40.629Z,99.57
2022-11-13T04:33:08.742Z,99.03
2022-11-13T04:35:36.794Z,265.43
2022-11-13T04:38:04.887Z,47.83
2022-11-13T04:40:35.177Z,152.03
2022-11-13T04:43:02.479Z,86.10
2022-11-13T04:45:30.460Z,122.53
2022-11-13T04:48:00.204Z,96.80
2022-11-13T04:50:28.427Z,121.80
2022-11-13T04:52:57.307Z,176.50
2022-11-13T04:55:25.452Z,159.00
2022-11-13T04:57:56.224Z,182.13
2022-11-13T05:00:24.699Z,301.60
2022-11-13T05:02:52.985Z,87.00
2022-11-13T05:05:21.045Z,336.33
2022-11-13T05:07:49.262Z,237.30
2022-11-13T05:10:17.518Z,213.53
2022-11-13T05:12:45.580Z,120.07
2022-11-13T05:15:14.938Z,199.13
2022-11-13T05:17:42.970Z,105.97
2022-11-13T05:20:12.298Z,101.87
2022-11-13T05:22:40.367Z,45.30
2022-11-13T05:25:09.703Z,61.90
2022-11-13T05:27:37.945Z,260.20
2022-11-13T05:30:07.241Z,75.37
2022-11-13T05:32:36.894Z,198.47
2022-11-13T05:35:05.495Z,108.80
2022-11-13T05:37:33.752Z,70.80
2022-11-13T05:40:01.827Z,49.10
2022-11-13T05:42:29.887Z,67.47
2022-11-13T05:44:57.931Z,163.20
2022-11-13T05:47:26.151Z,109.47
2022-11-13T05:49:55.578Z,154.80
2022-11-13T05:52:23.675Z,56.10
2022-11-13T05:54:52.009Z,17.23
2022-11-13T05:57:20.238Z,19.93
2022-11-13T05:59:48.279Z,90.90
2022-11-13T06:02:16.523Z,104.47
2022-11-13T06:04:44.529Z,60.57
2022-11-13T06:07:14.194Z,189.30
2022-11-13T06:09:42.389Z,62.30
2022-11-13T06:12:10.440Z,71.77
2022-11-13T06:14:39.198Z,52.47
2022-11-13T06:17:07.307Z,92.93
2022-11-13T06:19:35.544Z,40.17
2022-11-13T06:22:03.827Z,100.80
2022-11-13T06:24:34.346Z,30.33
2022-11-13T06:27:06.250Z,46.47
2022-11-13T06:29:34.378Z,142.50
2022-11-13T06:32:02.809Z,42.00
2022-11-13T06:34:31.125Z,12.90
2022-11-13T06:37:01.675Z,62.70
2022-11-13T06:39:29.914Z,35.80
2022-11-13T06:42:00.772Z,88.47
2022-11-13T06:44:28.989Z,140.97
2022-11-13T06:46:57.827Z,29.60
2022-11-13T06:49:26.026Z,31.63
2022-11-13T06:51:54.502Z,24.87
2022-11-13T06:54:23.440Z,34.27
2022-11-13T06:56:52.167Z,52.53
2022-11-13T06:59:21.765Z,26.23
2022-11-13T07:01:51.912Z,26.63
2022-11-13T07:04:19.955Z,20.60
2022-11-13T07:06:48.043Z,21.97
2022-11-13T07:09:20.176Z,60.93
2022-11-13T07:11:49.447Z,55.87
2022-11-13T07:14:17.672Z,23.50
2022-11-13T07:17:07.846Z,41.77
2022-11-13T07:19:35.901Z,37.10
2022-11-13T07:22:03.967Z,29.33
2022-11-13T07:24:34.705Z,21.70
2022-11-13T07:27:02.757Z,64.10
2022-11-13T07:29:31.010Z,34.27
2022-11-13T07:32:19.469Z,42.63
2022-11-13T07:34:51.102Z,48.67
2022-11-13T07:37:31.350Z,61.53
2022-11-13T07:39:59.364Z,147.33
2022-11-13T07:42:35.586Z,147.93
2022-11-13T07:45:10.736Z,117.50
2022-11-13T07:47:40.222Z,23.93
2022-11-13T07:50:10.972Z,68.97
2022-11-13T07:52:39.280Z,101.33
2022-11-13T07:55:09.351Z,58.23
2022-11-13T07:57:37.397Z,65.17
2022-11-13T08:00:06.523Z,107.73
2022-11-13T08:02:34.897Z,161.70
2022-11-13T08:05:05.202Z,47.53
2022-11-13T08:07:33.266Z,85.40
2022-11-13T08:10:01.360Z,182.23
2022-11-13T08:12:31.385Z,190.20
2022-11-13T08:15:00.212Z,20.00
2022-11-13T08:17:28.292Z,41.60
2022-11-13T08:19:56.639Z,192.10
2022-11-13T08:22:26.237Z,294.23
2022-11-13T08:24:55.222Z,147.00
2022-11-13T08:27:23.904Z,117.00
2022-11-13T08:29:54.069Z,181.33
2022-11-13T08:32:22.707Z,76.77
2022-11-13T08:34:51.061Z,83.70
2022-11-13T08:37:19.081Z,61.30
2022-11-13T08:39:48.496Z,100.60
2022-11-13T08:42:16.592Z,121.07
2022-11-13T08:44:44.723Z,45.00
2022-11-13T08:47:12.822Z,14.00
2022-11-13T08:49:40.975Z,214.03
2022-11-13T08:52:13.244Z,64.13
2022-11-13T08:54:41.287Z,90.10
2022-11-13T08:57:11.837Z,32.40
2022-11-13T08:59:40.267Z,70.90
2022-11-13T09:02:08.302Z,120.70
2022-11-13T09:04:36.398Z,106.47
2022-11-13T09:07:04.546Z,51.00
2022-11-13T09:09:34.535Z,96.70
2022-11-13T09:12:05.301Z,39.67
2022-11-13T09:14:34.679Z,194.70
2022-11-13T09:17:02.632Z,84.63
2022-11-13T09:19:30.757Z,43.13
2022-11-13T09:21:58.967Z,99.43
2022-11-13T09:24:27.099Z,45.43
2022-11-13T09:26:55.314Z,146.97
2022-11-13T09:29:23.751Z,35.53
2022-11-13T09:31:53.351Z,24.77
2022-11-13T09:34:21.746Z,26.20
2022-11-13T09:36:49.892Z,23.83
2022-11-13T09:39:18.310Z,16.23
2022-11-13T09:41:49.971Z,22.17
2022-11-13T09:44:31.551Z,17.80
2022-11-13T09:47:06.793Z,18.57
2022-11-13T09:49:37.275Z,32.13
2022-11-13T09:52:13.993Z,9.70
2022-11-13T09:54:42.187Z,6.10
2022-11-13T09:57:16.320Z,12.30
2022-11-13T09:59:48.899Z,22.40
2022-11-13T10:02:24.199Z,20.60
2022-11-13T10:04:59.937Z,10.63
2022-11-13T10:07:34.370Z,7.47
2022-11-13T10:10:17.892Z,13.73
2022-11-13T10:12:46.814Z,8.27
2022-11-13T10:15:15.901Z,5.53
2022-11-13T10:17:50.210Z,6.30
2022-11-13T10:20:24.366Z,8.07
2022-11-13T10:22:53.727Z,5.60
2022-11-13T10:25:23.221Z,4.77
2022-11-13T10:27:55.727Z,6.33
2022-11-13T10:30:23.962Z,8.60
2022-11-13T10:32:53.991Z,5.00
2022-11-13T10:35:45.494Z,6.80
2022-11-13T10:38:20.743Z,5.00
2022-11-13T10:40:48.972Z,6.30
2022-11-13T10:43:19.197Z,5.90
2022-11-13T10:45:56.699Z,7.93
2022-11-13T10:48:28.966Z,6.20
2022-11-13T10:50:59.613Z,5.00
2022-11-13T10:53:29.135Z,6.30
2022-11-13T10:55:58.692Z,8.83
2022-11-13T10:58:27.365Z,5.70
2022-11-13T11:00:56.216Z,6.57
2022-11-13T11:03:27.278Z,6.00
2022-11-13T11:06:00.039Z,5.87
2022-11-13T11:08:31.398Z,20.83
2022-11-13T11:11:19.347Z,13.60
2022-11-13T11:13:47.967Z,5.37
2022-11-13T11:16:20.318Z,5.47
2022-11-13T11:18:54.340Z,5.00
2022-11-13T11:21:24.583Z,3.90
2022-11-13T11:23:57.097Z,3.90
2022-11-13T11:26:30.363Z,4.13
2022-11-13T11:29:05.039Z,3.33
2022-11-13T11:31:37.116Z,4.20
2022-11-13T11:34:18.354Z,4.37
2022-11-13T11:36:54.675Z,4.90
2022-11-13T11:39:29.489Z,8.33
2022-11-13T11:42:06.886Z,3.80
2022-11-13T11:44:41.926Z,4.00
2022-11-13T11:47:16.035Z,3.80
2022-11-13T11:49:46.642Z,4.23
2022-11-13T11:52:26.679Z,3.77
2022-11-13T11:55:01.827Z,5.07
2022-11-13T11:57:40.661Z,4.87
2022-11-13T12:00:12.740Z,4.00
2022-11-13T12:02:56.987Z,5.30
2022-11-13T12:05:29.948Z,3.37
2022-11-13T12:08:07.254Z,3.50
2022-11-13T12:10:45.942Z,4.23
2022-11-13T12:13:22.641Z,4.50
2022-11-13T12:15:55.935Z,7.40
2022-11-13T12:18:30.559Z,3.53
2022-11-13T12:21:07.789Z,144.00
2022-11-13T12:23:46.046Z,67.63
2022-11-13T12:26:20.251Z,5.40
2022-11-13T12:28:52.240Z,5.83
2022-11-13T12:31:31.006Z,12.80
2022-11-13T12:34:04.235Z,7.23
2022-11-13T12:36:34.294Z,5.70
2022-11-13T12:39:19.771Z,5.73
2022-11-13T12:41:51.571Z,5.23
2022-11-13T12:44:24.736Z,6.60
2022-11-13T12:46:54.115Z,6.20
2022-11-13T12:49:33.480Z,4.50
2022-11-13T12:52:04.307Z,7.17
2022-11-13T12:54:34.135Z,7.33
2022-11-13T12:57:23.441Z,5.30
2022-11-13T12:59:55.874Z,7.13
2022-11-13T13:02:41.753Z,3.80
2022-11-13T13:05:18.906Z,4.60
2022-11-13T13:08:05.201Z,4.10
2022-11-13T13:10:38.070Z,4.80
2022-11-13T13:13:12.501Z,5.03
2022-11-13T13:15:41.964Z,6.30
2022-11-13T13:18:13.749Z,6.10
2022-11-13T13:20:46.117Z,5.80
2022-11-13T13:23:16.071Z,5.73
2022-11-13T13:25:44.248Z,5.70
2022-11-13T13:28:25.510Z,5.27
2022-11-13T13:31:09.638Z,5.40
2022-11-13T13:33:49.958Z,6.00
2022-11-13T13:36:26.251Z,5.50
2022-11-13T13:38:59.896Z,6.83
2022-11-13T13:41:36.764Z,4.83
2022-11-13T13:44:28.934Z,5.57
2022-11-13T13:46:58.092Z,4.80
2022-11-13T13:49:27.525Z,5.47
2022-11-13T13:51:57.301Z,6.60
2022-11-13T13:54:29.140Z,5.90
2022-11-13T13:56:58.810Z,5.30
2022-11-13T13:59:31.875Z,9.53
2022-11-13T14:02:01.442Z,4.97
2022-11-13T14:04:36.800Z,17.50
2022-11-13T14:07:05.184Z,14.87
2022-11-13T14:09:34.812Z,18.30
2022-11-13T14:12:09.294Z,8.70
2022-11-13T14:14:40.757Z,8.37
2022-11-13T14:17:12.191Z,8.20
2022-11-13T14:19:40.532Z,6.63
2022-11-13T14:22:10.000Z,6.07
2022-11-13T14:24:47.846Z,23.17
2022-11-13T14:27:20.044Z,67.63
2022-11-13T14:29:50.429Z,104.03
2022-11-13T14:32:22.774Z,74.63
2022-11-13T14:34:52.191Z,7.73
2022-11-13T14:37:24.410Z,11.10
2022-11-13T14:39:54.319Z,9.10
2022-11-13T14:42:24.676Z,15.53
2022-11-13T14:44:52.864Z,11.77
2022-11-13T14:47:24.449Z,8.97
2022-11-13T14:49:53.017Z,11.87
2022-11-13T14:52:22.964Z,9.70
2022-11-13T14:55:19.305Z,17.60
2022-11-13T14:57:50.601Z,23.37
2022-11-13T15:00:19.982Z,14.13
2022-11-13T15:02:48.267Z,16.87
2022-11-13T15:05:16.514Z,13.40
2022-11-13T15:07:46.561Z,12.13
2022-11-13T15:10:18.547Z,9.33
2022-11-13T15:12:46.796Z,13.00
2022-11-13T15:15:16.153Z,14.43
2022-11-13T15:17:44.497Z,12.77
2022-11-13T15:20:16.270Z,25.33
2022-11-13T15:22:44.485Z,18.90
2022-11-13T15:25:18.676Z,20.60
2022-11-13T15:27:46.802Z,23.57
2022-11-13T15:30:15.400Z,34.10
2022-11-13T15:32:43.972Z,31.87
2022-11-13T15:35:15.698Z,29.40
2022-11-13T15:37:45.327Z,17.50
2022-11-13T15:40:22.842Z,14.50
2022-11-13T15:42:50.955Z,16.20
2022-11-13T15:45:19.086Z,18.73
2022-11-13T15:47:47.275Z,18.63
2022-11-13T15:50:16.614Z,20.27
2022-11-13T15:52:47.941Z,25.77
2022-11-13T15:55:24.861Z,19.23
2022-11-13T15:57:53.057Z,23.43
2022-11-13T16:00:25.316Z,19.83
2022-11-13T16:02:55.839Z,21.10
2022-11-13T16:05:25.731Z,28.90
2022-11-13T16:07:54.260Z,49.83
2022-11-13T16:10:26.568Z,33.47
2022-11-13T16:12:55.629Z,25.70
2022-11-13T16:15:23.817Z,26.73
2022-11-13T16:17:54.551Z,28.43
2022-11-13T16:20:22.718Z,23.97
2022-11-13T16:22:51.243Z,21.60
2022-11-13T16:25:21.014Z,19.87
2022-11-13T16:27:50.533Z,20.47
2022-11-13T16:30:21.124Z,17.30
2022-11-13T16:32:49.436Z,15.30
2022-11-13T16:35:19.137Z,14.50
2022-11-13T16:37:47.401Z,18.90
2022-11-13T16:40:21.923Z,18.33
2022-11-13T16:42:51.791Z,15.50
2022-11-13T16:45:20.911Z,14.97
2022-11-13T16:47:50.754Z,13.33
2022-11-13T16:50:20.381Z,15.20
2022-11-13T16:52:48.631Z,11.67
2022-11-13T16:55:17.089Z,9.50
2022-11-13T16:57:45.469Z,8.93
2022-11-13T17:00:18.027Z,9.10
2022-11-13T17:02:46.745Z,12.50
2022-11-13T17:05:16.095Z,12.13
2022-11-13T17:07:44.579Z,12.20
2022-11-13T17:10:30.885Z,9.60
2022-11-13T17:12:59.917Z,15.87
2022-11-13T17:15:30.096Z,20.63
2022-11-13T17:17:59.456Z,24.17
2022-11-13T17:20:28.147Z,23.80
2022-11-13T17:22:56.494Z,19.57
2022-11-13T17:25:26.886Z,21.93
2022-11-13T17:27:55.800Z,17.13
2022-11-13T17:30:24.109Z,13.13
2022-11-13T17:32:53.689Z,18.03
2022-11-13T17:35:21.902Z,14.20
2022-11-13T17:37:50.459Z,17.33
2022-11-13T17:40:18.705Z,19.83
2022-11-13T17:42:48.110Z,21.83
2022-11-13T17:45:17.057Z,37.43
2022-11-13T17:47:45.506Z,49.07
2022-11-13T17:50:15.194Z,40.97
2022-11-13T17:52:43.451Z,15.13
2022-11-13T17:55:13.289Z,24.60
2022-11-13T17:57:41.476Z,28.23
2022-11-13T18:00:11.017Z,23.47
2022-11-13T18:02:39.679Z,33.77
2022-11-13T18:05:10.105Z,26.90
2022-11-13T18:07:40.257Z,16.03
2022-11-13T18:10:11.031Z,11.50
2022-11-13T18:12:39.374Z,16.50
2022-11-13T18:15:08.932Z,80.07
2022-11-13T18:17:37.202Z,66.93
2022-11-13T18:20:05.970Z,53.63
2022-11-13T18:22:34.083Z,86.93
2022-11-13T18:25:03.613Z,45.10
2022-11-13T18:27:32.335Z,15.77
2022-11-13T18:30:00.676Z,17.47
2022-11-13T18:32:28.865Z,20.37
2022-11-13T18:34:57.192Z,23.63
2022-11-13T18:37:25.244Z,33.10
2022-11-13T18:39:53.768Z,30.00
2022-11-13T18:42:23.830Z,27.70
2022-11-13T18:44:51.943Z,29.73
2022-11-13T18:47:20.157Z,20.57
2022-11-13T18:49:48.682Z,25.10
2022-11-13T18:52:16.872Z,17.93
2022-11-13T18:54:44.926Z,12.73
2022-11-13T18:57:13.776Z,12.33
2022-11-13T18:59:43.331Z,23.67
2022-11-13T19:02:13.012Z,41.17
2022-11-13T19:04:41.158Z,34.37
2022-11-13T19:07:12.172Z,36.73
2022-11-13T19:09:45.064Z,31.20
2022-11-13T19:12:13.346Z,29.87
2022-11-13T19:14:41.559Z,33.40
2022-11-13T19:17:11.131Z,31.07
2022-11-13T19:19:41.151Z,35.23
2022-11-13T19:22:10.060Z,48.73
2022-11-13T19:24:38.192Z,128.40
2022-11-13T19:27:06.484Z,46.17
2022-11-13T19:29:34.729Z,28.57
2022-11-13T19:32:03.221Z,113.07
2022-11-13T19:34:32.979Z,97.07
2022-11-13T19:37:01.452Z,16.23
2022-11-13T19:39:29.635Z,15.00
2022-11-13T19:41:58.033Z,16.80
2022-11-13T19:44:26.317Z,573.30
2022-11-13T19:46:54.475Z,419.90
2022-11-13T19:49:23.066Z,48.30
2022-11-13T19:51:52.858Z,29.63
2022-11-13T19:54:21.091Z,18.97
2022-11-13T19:56:49.202Z,17.30
2022-11-13T19:59:17.358Z,21.70
2022-11-13T20:01:45.687Z,20.63
2022-11-13T20:04:14.626Z,13.23
2022-11-13T20:06:42.784Z,19.83
2022-11-13T20:09:13.515Z,12.90
2022-11-13T20:11:41.623Z,11.63
2022-11-13T20:14:11.587Z,15.50
2022-11-13T20:16:41.617Z,17.83
2022-11-13T20:19:10.090Z,15.03
2022-11-13T20:21:40.990Z,13.67
2022-11-13T20:24:11.105Z,12.10
2022-11-13T20:26:41.567Z,12.97
2022-11-13T20:29:09.617Z,10.93
2022-11-13T20:31:37.691Z,14.37
2022-11-13T20:34:06.008Z,11.13
2022-11-13T20:36:34.426Z,13.50
2022-11-13T20:39:06.893Z,9.90
2022-11-13T20:41:38.161Z,18.20
2022-11-13T20:44:09.324Z,15.50
2022-11-13T20:46:37.503Z,12.50
2022-11-13T20:49:06.017Z,11.57
2022-11-13T20:51:34.907Z,12.47
2022-11-13T20:54:03.916Z,17.70
2022-11-13T20:56:32.985Z,10.10
2022-11-13T20:59:04.137Z,15.23
2022-11-13T21:01:35.281Z,12.27
2022-11-13T21:04:03.653Z,13.57
2022-11-13T21:06:31.736Z,12.60
2022-11-13T21:09:00.053Z,10.50
2022-11-13T21:11:30.570Z,14.33
2022-11-13T21:13:59.433Z,14.40
2022-11-13T21:16:28.733Z,14.23
2022-11-13T21:18:59.934Z,10.53
2022-11-13T21:21:29.172Z,12.63
2022-11-13T21:23:58.123Z,12.47
2022-11-13T21:26:26.480Z,12.10
2022-11-13T21:28:55.643Z,10.83
2022-11-13T21:31:24.251Z,14.70
2022-11-13T21:33:54.026Z,14.30
2022-11-13T21:36:27.624Z,15.70
2022-11-13T21:38:57.221Z,11.17
2022-11-13T21:41:26.057Z,12.50
2022-11-13T21:44:00.678Z,13.23
2022-11-13T21:46:30.669Z,16.90
2022-11-13T21:48:59.921Z,15.70
2022-11-13T21:51:29.836Z,18.83
2022-11-13T21:53:58.119Z,21.00
2022-11-13T21:56:27.591Z,16.80
2022-11-13T21:58:56.908Z,19.57
2022-11-13T22:01:25.913Z,12.80
2022-11-13T22:03:55.905Z,14.63
2022-11-13T22:06:28.375Z,13.13
2022-11-13T22:08:59.943Z,15.30
2022-11-13T22:11:34.857Z,18.10
2022-11-13T22:14:05.293Z,12.30
2022-11-13T22:16:35.954Z,12.53
2022-11-13T22:19:05.890Z,12.27
2022-11-13T22:21:35.061Z,13.27
2022-11-13T22:24:05.268Z,14.13
2022-11-13T22:26:40.356Z,16.00
2022-11-13T22:29:11.067Z,12.73
2022-11-13T22:31:41.116Z,14.30
2022-11-13T22:34:09.165Z,12.20
2022-11-13T22:36:38.545Z,16.20
2022-11-13T22:39:08.797Z,13.63
2022-11-13T22:41:37.458Z,17.60
2022-11-13T22:44:07.648Z,20.43
2022-11-13T22:46:37.041Z,19.90
2022-11-13T22:49:06.535Z,17.50
2022-11-13T22:51:38.016Z,14.20
2022-11-13T22:54:09.299Z,13.90
2022-11-13T22:56:38.589Z,10.53
2022-11-13T22:59:08.330Z,13.57
2022-11-13T23:01:38.239Z,11.10
2022-11-13T23:04:08.010Z,12.90
2022-11-13T23:06:37.115Z,12.80
2022-11-13T23:09:07.495Z,11.17
2022-11-13T23:11:38.001Z,9.23
2022-11-13T23:14:08.217Z,11.77
2022-11-13T23:16:36.597Z,19.20
2022-11-13T23:19:05.344Z,17.33
2022-11-13T23:21:33.868Z,12.40
2022-11-13T23:24:02.440Z,11.53
2022-11-13T23:26:32.253Z,13.00
2022-11-13T23:29:00.485Z,11.87
2022-11-13T23:31:30.537Z,13.33
2022-11-13T23:33:58.523Z,10.57
2022-11-13T23:36:27.628Z,13.03
2022-11-13T23:38:55.771Z,11.77
2022-11-13T23:41:23.660Z,14.90
2022-11-13T23:44:08.270Z,12.47
2022-11-13T23:46:37.108Z,16.33
2022-11-13T23:49:05.194Z,11.40
2022-11-13T23:51:33.593Z,13.70
2022-11-13T23:54:01.738Z,14.50
2022-11-13T23:56:29.976Z,13.27
2022-11-13T23:58:59.391Z,10.90
